createdAt,value
2022-08-14T00:01:35.504Z,59.10
2022-08-14T00:03:40.478Z,59.30
2022-08-14T00:05:44.284Z,59.20
2022-08-14T00:07:48.082Z,59.10
2022-08-14T00:10:01.949Z,59.10
2022-08-14T00:12:24.401Z,59.20
2022-08-14T00:14:29.324Z,59.30
2022-08-14T00:16:41.451Z,59.20
2022-08-14T00:19:06.564Z,59.50
2022-08-14T00:21:11.820Z,59.50
2022-08-14T00:23:17.766Z,59.60
2022-08-14T00:25:20.837Z,59.60
2022-08-14T00:27:23.712Z,59.50
2022-08-14T00:29:27.295Z,59.60
2022-08-14T00:31:35.156Z,59.80
2022-08-14T00:33:52.166Z,59.80
2022-08-14T00:36:36.816Z,59.70
2022-08-14T00:38:19.279Z,59.70
2022-08-14T00:40:33.073Z,59.90
2022-08-14T00:42:55.530Z,59.90
2022-08-14T00:44:59.282Z,59.80
2022-08-14T00:47:06.081Z,59.90
2022-08-14T00:49:15.536Z,60.00
2022-08-14T00:51:18.336Z,59.90
2022-08-14T00:53:21.108Z,60.10
2022-08-14T00:55:24.270Z,60.30
2022-08-14T00:57:29.388Z,60.40
2022-08-14T00:59:32.130Z,60.40
2022-08-14T01:01:36.992Z,60.50
2022-08-14T01:03:42.366Z,60.50
2022-08-14T01:05:51.652Z,60.70
2022-08-14T01:07:57.880Z,60.60
2022-08-14T01:10:05.167Z,60.70
2022-08-14T01:12:09.013Z,60.70
2022-08-14T01:14:26.040Z,60.80
2022-08-14T01:16:31.812Z,60.80
2022-08-14T01:19:01.400Z,60.80
2022-08-14T01:21:08.958Z,60.80
2022-08-14T01:23:19.045Z,61.10
2022-08-14T01:25:24.403Z,61.20
2022-08-14T01:27:28.603Z,61.50
2022-08-14T01:29:48.658Z,61.40
2022-08-14T01:32:01.846Z,61.80
2022-08-14T01:35:19.617Z,61.70
2022-08-14T01:36:35.437Z,61.50
2022-08-14T01:38:44.075Z,61.70
2022-08-14T01:40:51.926Z,61.50
2022-08-14T01:42:57.109Z,61.70
2022-08-14T01:45:00.986Z,61.40
2022-08-14T01:47:16.449Z,61.60
2022-08-14T01:49:25.577Z,61.90
2022-08-14T01:51:39.301Z,61.80
2022-08-14T01:53:48.124Z,61.60
2022-08-14T01:55:59.932Z,61.60
2022-08-14T01:58:19.583Z,61.50
2022-08-14T02:00:23.764Z,61.60
2022-08-14T02:02:31.084Z,61.90
2022-08-14T02:04:56.882Z,62.00
2022-08-14T02:07:00.508Z,62.10
2022-08-14T02:09:18.953Z,62.10
2022-08-14T02:11:24.620Z,62.10
2022-08-14T02:13:27.348Z,62.20
2022-08-14T02:15:33.420Z,62.20
2022-08-14T02:17:36.805Z,62.40
2022-08-14T02:19:40.610Z,62.40
2022-08-14T02:21:50.406Z,62.40
2022-08-14T02:23:55.297Z,62.30
2022-08-14T02:26:24.231Z,62.20
2022-08-14T02:28:57.547Z,62.20
2022-08-14T02:30:53.289Z,62.20
2022-08-14T02:32:57.469Z,62.30
2022-08-14T02:35:03.563Z,62.20
2022-08-14T02:37:09.995Z,62.20
2022-08-14T02:39:15.215Z,62.40
2022-08-14T02:41:19.281Z,62.10
2022-08-14T02:43:22.550Z,62.10
2022-08-14T02:45:33.572Z,62.30
2022-08-14T02:47:41.786Z,62.20
2022-08-14T02:49:56.710Z,62.00
2022-08-14T02:51:59.910Z,61.90
2022-08-14T02:54:03.546Z,62.20
2022-08-14T02:56:29.620Z,62.20
2022-08-14T02:58:34.338Z,62.30
2022-08-14T03:00:40.552Z,62.20
2022-08-14T03:02:49.422Z,62.20
2022-08-14T03:05:01.294Z,62.40
2022-08-14T03:07:07.600Z,62.40
2022-08-14T03:09:12.159Z,62.50
2022-08-14T03:11:15.365Z,62.60
2022-08-14T03:13:21.614Z,62.80
2022-08-14T03:15:25.932Z,62.90
2022-08-14T03:17:31.893Z,62.90
2022-08-14T03:19:44.107Z,62.90
2022-08-14T03:21:46.882Z,62.80
2022-08-14T03:24:02.910Z,62.80
2022-08-14T03:26:13.287Z,62.60
2022-08-14T03:28:29.667Z,62.70
2022-08-14T03:30:40.878Z,62.70
2022-08-14T03:32:44.758Z,62.80
2022-08-14T03:34:55.458Z,62.80
2022-08-14T03:37:37.978Z,62.60
2022-08-14T03:39:24.342Z,62.60
2022-08-14T03:41:33.174Z,62.50
2022-08-14T03:43:36.963Z,62.50
2022-08-14T03:45:48.703Z,62.50
2022-08-14T03:47:58.327Z,62.50
2022-08-14T03:50:02.399Z,62.60
2022-08-14T03:52:18.047Z,62.80
2022-08-14T03:54:29.205Z,62.80
2022-08-14T03:56:32.976Z,63.10
2022-08-14T03:58:39.062Z,63.10
2022-08-14T04:00:46.217Z,63.20
2022-08-14T04:02:53.464Z,63.20
2022-08-14T04:04:56.451Z,63.50
2022-08-14T04:07:11.212Z,63.50
2022-08-14T04:09:13.941Z,63.40
2022-08-14T04:11:20.599Z,63.50
2022-08-14T04:13:23.837Z,63.40
2022-08-14T04:15:26.935Z,63.50
2022-08-14T04:17:30.951Z,63.30
2022-08-14T04:19:36.524Z,63.30
2022-08-14T04:22:02.458Z,63.10
2022-08-14T04:24:02.605Z,63.00
2022-08-14T04:26:15.018Z,63.20
2022-08-14T04:29:08.997Z,63.20
2022-08-14T04:30:53.508Z,63.40
2022-08-14T04:33:07.322Z,63.40
2022-08-14T04:35:14.324Z,63.50
2022-08-14T04:37:45.096Z,63.50
2022-08-14T04:40:05.684Z,63.30
2022-08-14T04:42:29.337Z,63.60
2022-08-14T04:44:36.587Z,63.70
2022-08-14T04:46:56.350Z,63.90
2022-08-14T04:49:02.081Z,64.20
2022-08-14T04:51:07.661Z,64.40
2022-08-14T04:53:13.007Z,64.60
2022-08-14T04:55:15.717Z,64.90
2022-08-14T04:57:18.431Z,64.90
2022-08-14T04:59:23.067Z,64.60
2022-08-14T05:01:26.592Z,65.00
2022-08-14T05:03:31.811Z,64.80
2022-08-14T05:05:35.999Z,65.10
2022-08-14T05:07:54.027Z,64.70
2022-08-14T05:10:13.155Z,64.40
2022-08-14T05:13:24.312Z,64.40
2022-08-14T05:14:46.497Z,64.20
2022-08-14T05:17:01.792Z,64.00
2022-08-14T05:19:25.239Z,63.90
2022-08-14T05:21:57.147Z,64.00
2022-08-14T05:23:53.757Z,64.50
2022-08-14T05:26:00.627Z,65.00
2022-08-14T05:28:18.826Z,65.30
2022-08-14T05:30:23.291Z,64.80
2022-08-14T05:32:28.191Z,64.60
2022-08-14T05:34:31.555Z,64.60
2022-08-14T05:36:36.504Z,64.40
2022-08-14T05:38:44.932Z,64.30
2022-08-14T05:40:49.186Z,64.30
2022-08-14T05:42:52.953Z,64.20
2022-08-14T05:44:56.210Z,64.30
2022-08-14T05:46:59.121Z,64.20
2022-08-14T05:49:02.232Z,64.20
2022-08-14T05:51:06.762Z,64.20
2022-08-14T05:53:13.218Z,64.50
2022-08-14T05:55:22.552Z,64.90
2022-08-14T05:57:25.985Z,64.70
2022-08-14T05:59:38.797Z,65.10
2022-08-14T06:01:42.596Z,65.40
2022-08-14T06:03:46.415Z,65.10
2022-08-14T06:05:53.554Z,66.00
2022-08-14T06:07:57.368Z,66.10
2022-08-14T06:10:04.032Z,66.50
2022-08-14T06:12:07.891Z,66.50
2022-08-14T06:14:20.913Z,66.70
2022-08-14T06:16:26.559Z,66.70
2022-08-14T06:18:32.257Z,67.10
2022-08-14T06:20:35.272Z,67.00
2022-08-14T06:22:37.977Z,67.00
2022-08-14T06:24:40.881Z,67.10
2022-08-14T06:26:52.060Z,67.30
2022-08-14T06:28:59.903Z,67.50
2022-08-14T06:31:02.630Z,67.60
2022-08-14T06:33:06.889Z,67.80
2022-08-14T06:35:13.572Z,67.50
2022-08-14T06:37:18.724Z,67.60
2022-08-14T06:39:36.791Z,67.20
2022-08-14T06:41:58.452Z,67.20
2022-08-14T06:44:04.513Z,67.30
2022-08-14T06:46:22.955Z,67.30
2022-08-14T06:48:32.741Z,67.00
2022-08-14T06:50:38.202Z,66.80
2022-08-14T06:52:50.098Z,66.70
2022-08-14T06:54:53.332Z,66.60
2022-08-14T06:56:57.187Z,66.50
2022-08-14T06:58:59.969Z,66.40
2022-08-14T07:01:31.045Z,66.20
2022-08-14T07:03:52.383Z,66.20
2022-08-14T07:05:58.553Z,66.00
2022-08-14T07:08:01.476Z,65.70
2022-08-14T07:10:05.686Z,66.40
2022-08-14T07:12:09.066Z,65.70
2022-08-14T07:14:31.756Z,65.40
2022-08-14T07:16:37.355Z,65.30
2022-08-14T07:18:41.534Z,65.10
2022-08-14T07:20:45.560Z,64.80
2022-08-14T07:22:49.922Z,64.80
2022-08-14T07:24:59.273Z,64.80
2022-08-14T07:27:01.990Z,64.10
2022-08-14T07:29:04.870Z,64.10
2022-08-14T07:31:11.419Z,64.10
2022-08-14T07:33:15.538Z,63.70
2022-08-14T07:35:19.448Z,62.90
2022-08-14T07:37:22.339Z,62.90
2022-08-14T07:39:27.475Z,63.40
2022-08-14T07:41:31.238Z,63.30
2022-08-14T07:43:37.562Z,62.40
2022-08-14T07:45:41.631Z,62.30
2022-08-14T07:47:45.053Z,62.50
2022-08-14T07:50:01.855Z,62.30
2022-08-14T07:52:05.535Z,62.10
2022-08-14T07:54:11.651Z,62.30
2022-08-14T07:56:43.686Z,61.90
2022-08-14T07:58:38.641Z,61.30
2022-08-14T08:00:42.366Z,61.30
2022-08-14T08:02:50.530Z,60.70
2022-08-14T08:05:02.665Z,60.80
2022-08-14T08:07:05.816Z,60.50
2022-08-14T08:09:10.410Z,60.30
2022-08-14T08:11:15.263Z,60.70
2022-08-14T08:13:24.091Z,60.70
2022-08-14T08:15:28.550Z,60.30
2022-08-14T08:17:38.919Z,60.60
2022-08-14T08:19:51.613Z,60.50
2022-08-14T08:21:55.877Z,60.40
2022-08-14T08:23:58.983Z,60.70
2022-08-14T08:26:01.761Z,60.50
2022-08-14T08:28:08.906Z,59.80
2022-08-14T08:30:22.559Z,59.80
2022-08-14T08:32:29.898Z,59.50
2022-08-14T08:34:33.030Z,59.40
2022-08-14T08:36:42.063Z,59.50
2022-08-14T08:39:16.835Z,59.30
2022-08-14T08:41:14.344Z,59.20
2022-08-14T08:43:22.874Z,58.90
2022-08-14T08:45:27.778Z,58.60
2022-08-14T08:47:39.853Z,59.00
2022-08-14T08:49:52.623Z,59.20
2022-08-14T08:52:04.379Z,59.50
2022-08-14T08:54:14.958Z,59.30
2022-08-14T08:56:30.619Z,58.90
2022-08-14T08:58:42.911Z,59.00
2022-08-14T09:00:49.169Z,58.80
2022-08-14T09:03:03.294Z,58.60
2022-08-14T09:05:07.298Z,58.60
2022-08-14T09:07:11.584Z,58.70
2022-08-14T09:09:23.866Z,58.50
2022-08-14T09:11:26.600Z,58.50
2022-08-14T09:13:33.144Z,58.50
2022-08-14T09:15:42.513Z,58.40
2022-08-14T09:17:46.178Z,57.20
2022-08-14T09:19:49.458Z,57.50
2022-08-14T09:21:55.082Z,56.50
2022-08-14T09:24:26.508Z,56.80
2022-08-14T09:26:22.328Z,56.90
2022-08-14T09:28:31.436Z,56.30
2022-08-14T09:30:41.191Z,57.10
2022-08-14T09:33:22.643Z,55.90
2022-08-14T09:35:42.082Z,55.70
2022-08-14T09:37:58.938Z,55.70
2022-08-14T09:40:10.246Z,56.00
2022-08-14T09:42:35.795Z,55.60
2022-08-14T09:44:46.671Z,55.30
2022-08-14T09:46:56.159Z,55.30
2022-08-14T09:49:01.580Z,55.30
2022-08-14T09:53:18.042Z,54.70
2022-08-14T09:55:22.475Z,55.40
2022-08-14T09:57:28.977Z,54.80
2022-08-14T09:59:42.094Z,55.10
2022-08-14T10:01:46.205Z,54.70
2022-08-14T10:03:59.660Z,54.20
2022-08-14T10:06:11.950Z,53.80
2022-08-14T10:08:26.239Z,53.60
2022-08-14T10:10:34.397Z,53.00
2022-08-14T10:12:52.899Z,53.40
2022-08-14T10:14:57.754Z,53.40
2022-08-14T10:17:05.209Z,52.90
2022-08-14T10:19:12.066Z,53.10
2022-08-14T10:21:18.052Z,52.10
2022-08-14T10:23:23.142Z,52.50
2022-08-14T10:25:31.638Z,52.10
2022-08-14T10:27:36.906Z,51.60
2022-08-14T10:29:44.579Z,52.20
2022-08-14T10:31:59.101Z,51.60
2022-08-14T10:34:12.874Z,51.40
2022-08-14T10:36:37.011Z,51.40
2022-08-14T10:38:43.876Z,51.30
2022-08-14T10:40:59.201Z,51.50
2022-08-14T10:43:02.517Z,51.90
2022-08-14T10:45:21.043Z,52.10
2022-08-14T10:47:38.960Z,51.10
2022-08-14T10:49:59.712Z,50.80
2022-08-14T10:52:07.184Z,51.40
2022-08-14T10:54:16.998Z,51.50
2022-08-14T10:56:35.801Z,51.70
2022-08-14T10:58:38.746Z,50.80
2022-08-14T11:00:56.859Z,50.70
2022-08-14T11:03:02.599Z,50.50
2022-08-14T11:05:08.742Z,50.10
2022-08-14T11:07:18.038Z,50.20
2022-08-14T11:09:26.301Z,50.20
2022-08-14T11:11:46.487Z,50.30
2022-08-14T11:13:51.165Z,50.40
2022-08-14T11:15:57.400Z,50.00
2022-08-14T11:18:01.157Z,49.80
2022-08-14T11:20:13.833Z,50.10
2022-08-14T11:23:02.888Z,50.10
2022-08-14T11:24:50.479Z,50.30
2022-08-14T11:27:01.178Z,50.20
2022-08-14T11:29:05.742Z,49.70
2022-08-14T11:31:11.189Z,50.10
2022-08-14T11:33:14.161Z,50.20
2022-08-14T11:35:21.101Z,49.10
2022-08-14T11:37:38.107Z,49.70
2022-08-14T11:39:43.537Z,50.10
2022-08-14T11:41:56.057Z,49.90
2022-08-14T11:43:59.744Z,48.90
2022-08-14T11:46:03.685Z,48.50
2022-08-14T11:48:59.709Z,48.60
2022-08-14T11:50:41.292Z,47.50
2022-08-14T11:52:47.001Z,47.40
2022-08-14T11:55:00.484Z,47.50
2022-08-14T11:57:05.113Z,47.50
2022-08-14T11:59:10.959Z,48.10
2022-08-14T12:01:16.110Z,48.30
2022-08-14T12:03:27.088Z,48.40
2022-08-14T12:05:43.439Z,47.80
2022-08-14T12:07:50.067Z,47.70
2022-08-14T12:09:56.206Z,47.60
2022-08-14T12:11:59.098Z,47.50
2022-08-14T12:14:08.588Z,47.10
2022-08-14T12:16:20.854Z,48.00
2022-08-14T12:18:34.353Z,48.00
2022-08-14T12:20:45.565Z,47.60
2022-08-14T12:22:52.638Z,47.10
2022-08-14T12:24:57.790Z,47.10
2022-08-14T12:27:01.070Z,47.60
2022-08-14T12:29:08.947Z,47.00
2022-08-14T12:31:20.768Z,47.10
2022-08-14T12:33:26.977Z,47.00
2022-08-14T12:35:40.402Z,46.50
2022-08-14T12:37:49.669Z,46.20
2022-08-14T12:39:53.611Z,46.80
2022-08-14T12:42:06.274Z,45.90
2022-08-14T12:44:09.043Z,46.10
2022-08-14T12:46:26.904Z,45.80
2022-08-14T12:48:32.453Z,45.20
2022-08-14T12:50:41.902Z,45.00
2022-08-14T12:52:58.772Z,44.80
2022-08-14T12:55:11.411Z,44.60
2022-08-14T12:57:19.495Z,45.10
2022-08-14T12:59:33.105Z,44.70
2022-08-14T13:01:56.727Z,44.50
2022-08-14T13:04:07.170Z,45.00
2022-08-14T13:06:11.723Z,44.60
2022-08-14T13:08:33.502Z,44.50
2022-08-14T13:10:47.425Z,44.70
2022-08-14T13:13:13.278Z,43.90
2022-08-14T13:15:19.486Z,43.80
2022-08-14T13:17:24.272Z,44.10
2022-08-14T13:19:30.983Z,44.30
2022-08-14T13:21:58.670Z,43.80
2022-08-14T13:23:58.371Z,43.40
2022-08-14T13:26:01.751Z,43.90
2022-08-14T13:28:11.218Z,43.60
2022-08-14T13:30:23.386Z,42.80
2022-08-14T13:32:28.646Z,42.80
2022-08-14T13:34:31.920Z,42.60
2022-08-14T13:36:54.772Z,42.50
2022-08-14T13:39:01.389Z,42.70
2022-08-14T13:41:06.133Z,41.70
2022-08-14T13:43:09.786Z,42.20
2022-08-14T13:45:14.865Z,42.00
2022-08-14T13:47:20.614Z,43.00
2022-08-14T13:49:24.155Z,42.70
2022-08-14T13:51:32.339Z,42.50
2022-08-14T13:53:52.634Z,41.30
2022-08-14T13:56:07.544Z,41.40
2022-08-14T13:58:34.033Z,42.20
2022-08-14T14:00:53.620Z,41.40
2022-08-14T14:03:00.715Z,41.10
2022-08-14T14:05:05.871Z,40.70
2022-08-14T14:07:13.084Z,40.50
2022-08-14T14:09:22.741Z,40.20
2022-08-14T14:11:26.298Z,40.10
2022-08-14T14:13:33.157Z,40.10
2022-08-14T14:15:48.535Z,39.80
2022-08-14T14:18:00.937Z,39.20
2022-08-14T14:20:05.573Z,39.00
2022-08-14T14:22:09.812Z,39.10
2022-08-14T14:24:15.544Z,39.00
2022-08-14T14:26:23.821Z,39.40
2022-08-14T14:28:32.371Z,39.20
2022-08-14T14:30:51.639Z,39.60
2022-08-14T14:33:04.284Z,39.60
2022-08-14T14:35:13.534Z,39.60
2022-08-14T14:37:16.783Z,39.30
2022-08-14T14:39:23.429Z,38.80
2022-08-14T14:41:37.633Z,38.80
2022-08-14T14:43:45.017Z,38.90
2022-08-14T14:45:50.156Z,38.40
2022-08-14T14:47:59.055Z,38.60
2022-08-14T14:50:03.960Z,38.60
2022-08-14T14:52:11.766Z,38.50
2022-08-14T14:54:31.551Z,38.80
2022-08-14T14:56:51.539Z,38.40
2022-08-14T14:58:57.604Z,38.70
2022-08-14T15:01:04.051Z,38.90
2022-08-14T15:03:11.651Z,38.70
2022-08-14T15:05:16.457Z,38.90
2022-08-14T15:07:22.146Z,38.20
2022-08-14T15:09:25.044Z,38.30
2022-08-14T15:11:30.417Z,38.90
2022-08-14T15:13:37.585Z,38.70
2022-08-14T15:15:46.630Z,38.40
2022-08-14T15:17:54.969Z,38.70
2022-08-14T15:19:57.914Z,38.80
2022-08-14T15:22:01.266Z,38.00
2022-08-14T15:24:04.210Z,38.50
2022-08-14T15:26:07.598Z,38.80
2022-08-14T15:28:20.835Z,38.80
2022-08-14T15:30:32.576Z,38.40
2022-08-14T15:32:36.073Z,38.80
2022-08-14T15:34:50.773Z,38.80
2022-08-14T15:36:54.778Z,38.00
2022-08-14T15:38:59.096Z,37.80
2022-08-14T15:41:03.137Z,37.80
2022-08-14T15:43:13.182Z,37.70
2022-08-14T15:45:17.192Z,38.40
2022-08-14T15:47:27.635Z,38.00
2022-08-14T15:49:34.589Z,37.80
2022-08-14T15:51:42.218Z,37.50
2022-08-14T15:53:46.739Z,37.50
2022-08-14T15:55:54.487Z,38.30
2022-08-14T15:58:03.771Z,38.30
2022-08-14T16:00:40.525Z,38.30
2022-08-14T16:02:47.684Z,38.00
2022-08-14T16:04:51.884Z,38.60
2022-08-14T16:06:55.731Z,38.80
2022-08-14T16:09:07.711Z,38.30
2022-08-14T16:11:15.312Z,38.00
2022-08-14T16:13:39.814Z,37.30
2022-08-14T16:15:53.179Z,38.10
2022-08-14T16:17:58.239Z,37.80
2022-08-14T16:20:02.781Z,38.50
2022-08-14T16:22:58.757Z,38.60
2022-08-14T16:24:34.742Z,38.70
2022-08-14T16:26:39.461Z,37.70
2022-08-14T16:28:46.097Z,38.00
2022-08-14T16:30:54.328Z,37.90
2022-08-14T16:33:01.240Z,38.50
2022-08-14T16:35:05.926Z,38.20
2022-08-14T16:37:13.042Z,38.00
2022-08-14T16:39:16.743Z,37.60
2022-08-14T16:41:27.558Z,37.80
2022-08-14T16:43:30.438Z,38.10
2022-08-14T16:45:33.782Z,38.20
2022-08-14T16:47:42.038Z,38.60
2022-08-14T16:50:04.009Z,38.20
2022-08-14T16:52:25.747Z,38.30
2022-08-14T16:54:44.391Z,38.80
2022-08-14T16:56:48.291Z,38.40
2022-08-14T16:59:04.956Z,39.40
2022-08-14T17:01:24.422Z,38.60
2022-08-14T17:03:29.028Z,39.40
2022-08-14T17:05:46.902Z,39.10
2022-08-14T17:08:33.474Z,39.10
2022-08-14T17:10:59.850Z,39.00
2022-08-14T17:13:18.117Z,38.70
2022-08-14T17:15:20.885Z,38.70
2022-08-14T17:17:28.709Z,39.70
2022-08-14T17:19:41.243Z,38.80
2022-08-14T17:21:46.760Z,38.70
2022-08-14T17:23:52.258Z,39.00
2022-08-14T17:25:55.088Z,38.60
2022-08-14T17:28:51.396Z,38.90
2022-08-14T17:30:50.172Z,38.70
2022-08-14T17:32:57.058Z,38.60
2022-08-14T17:35:01.954Z,39.30
2022-08-14T17:37:07.027Z,40.10
2022-08-14T17:39:22.415Z,40.50
2022-08-14T17:41:33.030Z,40.40
2022-08-14T17:43:42.016Z,41.00
2022-08-14T17:45:46.732Z,40.80
2022-08-14T17:47:49.984Z,40.70
2022-08-14T17:49:55.533Z,40.90
2022-08-14T17:52:07.640Z,41.10
2022-08-14T17:54:34.943Z,42.20
2022-08-14T17:56:38.895Z,41.70
2022-08-14T17:58:42.315Z,41.60
2022-08-14T18:00:45.396Z,41.80
2022-08-14T18:02:53.954Z,42.10
2022-08-14T18:05:00.059Z,41.80
2022-08-14T18:07:16.489Z,42.50
2022-08-14T18:09:32.569Z,42.40
2022-08-14T18:11:46.499Z,42.90
2022-08-14T18:13:52.704Z,43.00
2022-08-14T18:15:57.886Z,43.00
2022-08-14T18:18:05.355Z,43.10
2022-08-14T18:20:15.923Z,42.90
2022-08-14T18:22:39.436Z,42.80
2022-08-14T18:24:46.431Z,43.10
2022-08-14T18:26:53.231Z,43.20
2022-08-14T18:29:15.007Z,43.00
2022-08-14T18:31:44.069Z,43.10
2022-08-14T18:33:55.019Z,43.70
2022-08-14T18:36:47.129Z,43.50
2022-08-14T18:38:45.508Z,43.50
2022-08-14T18:40:51.249Z,43.40
2022-08-14T18:43:02.348Z,43.50
2022-08-14T18:45:12.874Z,43.60
2022-08-14T18:47:22.738Z,43.30
2022-08-14T18:49:25.975Z,43.50
2022-08-14T18:51:45.433Z,43.50
2022-08-14T18:53:53.354Z,43.60
2022-08-14T18:55:59.979Z,43.50
2022-08-14T18:58:27.548Z,43.60
2022-08-14T19:00:51.422Z,43.70
2022-08-14T19:02:54.937Z,43.90
2022-08-14T19:04:59.371Z,44.10
2022-08-14T19:07:16.579Z,44.30
2022-08-14T19:09:56.344Z,44.40
2022-08-14T19:12:02.397Z,44.50
2022-08-14T19:14:08.814Z,44.30
2022-08-14T19:16:13.771Z,44.20
2022-08-14T19:18:28.117Z,44.30
2022-08-14T19:20:49.045Z,44.60
2022-08-14T19:22:56.628Z,44.70
2022-08-14T19:24:59.491Z,44.70
2022-08-14T19:27:23.216Z,44.80
2022-08-14T19:29:37.458Z,44.80
2022-08-14T19:31:55.340Z,44.90
2022-08-14T19:34:01.768Z,45.00
2022-08-14T19:36:31.497Z,45.10
2022-08-14T19:38:59.129Z,45.30
2022-08-14T19:41:13.350Z,45.60
2022-08-14T19:43:56.663Z,45.50
2022-08-14T19:45:56.216Z,45.70
2022-08-14T19:47:59.657Z,45.80
2022-08-14T19:50:30.153Z,45.80
2022-08-14T19:52:29.786Z,46.00
2022-08-14T19:54:35.120Z,45.90
2022-08-14T19:56:39.922Z,46.00
2022-08-14T19:58:54.680Z,46.00
2022-08-14T20:01:00.265Z,45.80
2022-08-14T20:03:10.455Z,46.00
2022-08-14T20:05:15.425Z,46.30
2022-08-14T20:07:59.157Z,46.10
2022-08-14T20:11:05.559Z,46.10
2022-08-14T20:12:28.769Z,46.10
2022-08-14T20:14:39.885Z,46.00
2022-08-14T20:17:03.262Z,46.00
2022-08-14T20:19:22.421Z,46.10
2022-08-14T20:21:34.438Z,46.10
2022-08-14T20:23:38.885Z,46.10
2022-08-14T20:25:45.385Z,46.10
2022-08-14T20:27:59.748Z,46.20
2022-08-14T20:30:29.769Z,46.50
2022-08-14T20:32:36.975Z,46.70
2022-08-14T20:34:39.945Z,46.80
2022-08-14T20:37:04.410Z,46.70
2022-08-14T20:39:10.342Z,47.10
2022-08-14T20:41:21.373Z,46.80
2022-08-14T20:43:45.021Z,47.00
2022-08-14T20:45:51.375Z,47.00
2022-08-14T20:48:01.188Z,47.00
2022-08-14T20:50:16.691Z,46.80
2022-08-14T20:52:30.295Z,46.80
2022-08-14T20:54:49.271Z,46.70
2022-08-14T20:56:53.389Z,47.00
2022-08-14T20:58:56.133Z,46.90
2022-08-14T21:01:02.206Z,46.80
2022-08-14T21:03:57.427Z,46.70
2022-08-14T21:06:16.948Z,46.60
2022-08-14T21:08:22.284Z,46.60
2022-08-14T21:10:36.199Z,46.70
2022-08-14T21:13:26.661Z,46.80
2022-08-14T21:15:13.761Z,46.90
2022-08-14T21:17:18.638Z,47.20
2022-08-14T21:19:22.448Z,47.10
2022-08-14T21:21:41.369Z,47.10
2022-08-14T21:23:54.306Z,47.30
2022-08-14T21:25:59.644Z,47.50
2022-08-14T21:28:06.385Z,47.50
2022-08-14T21:30:10.798Z,47.70
2022-08-14T21:32:33.643Z,48.00
2022-08-14T21:34:42.046Z,48.00
2022-08-14T21:36:58.253Z,48.30
2022-08-14T21:39:01.198Z,48.20
2022-08-14T21:41:43.292Z,48.20
2022-08-14T21:43:32.327Z,48.50
2022-08-14T21:45:36.926Z,48.60
2022-08-14T21:47:43.407Z,48.70
2022-08-14T21:49:48.541Z,49.30
2022-08-14T21:51:59.788Z,49.40
2022-08-14T21:54:06.485Z,49.20
2022-08-14T21:56:38.588Z,49.30
2022-08-14T21:58:52.365Z,49.20
2022-08-14T22:00:58.845Z,49.30
2022-08-14T22:03:01.683Z,49.60
2022-08-14T22:05:06.351Z,49.60
2022-08-14T22:07:12.276Z,49.80
2022-08-14T22:09:16.549Z,49.80
2022-08-14T22:11:25.603Z,49.70
2022-08-14T22:13:32.483Z,49.80
2022-08-14T22:15:38.351Z,49.90
2022-08-14T22:17:52.212Z,50.00
2022-08-14T22:19:57.413Z,50.30
2022-08-14T22:22:02.030Z,50.20
2022-08-14T22:24:10.769Z,50.60
2022-08-14T22:26:22.069Z,50.50
2022-08-14T22:28:32.958Z,50.90
2022-08-14T22:30:37.023Z,50.70
2022-08-14T22:32:57.969Z,50.80
2022-08-14T22:35:01.362Z,51.00
2022-08-14T22:37:06.311Z,50.80
2022-08-14T22:39:11.015Z,50.80
2022-08-14T22:41:30.474Z,50.90
2022-08-14T22:43:38.838Z,51.00
2022-08-14T22:45:41.980Z,51.00
2022-08-14T22:47:59.030Z,51.00
2022-08-14T22:50:31.673Z,51.20
2022-08-14T22:52:32.825Z,51.30
2022-08-14T22:54:52.852Z,51.80
2022-08-14T22:56:58.741Z,51.20
2022-08-14T22:59:09.710Z,51.10
2022-08-14T23:01:15.784Z,51.30
2022-08-14T23:03:19.645Z,51.40
2022-08-14T23:05:34.130Z,51.40
2022-08-14T23:08:57.985Z,51.20
2022-08-14T23:10:32.370Z,51.20
2022-08-14T23:12:34.882Z,51.20
2022-08-14T23:14:38.856Z,51.40
2022-08-14T23:16:44.410Z,51.50
2022-08-14T23:18:54.144Z,51.50
2022-08-14T23:20:57.504Z,51.60
2022-08-14T23:23:01.629Z,51.70
2022-08-14T23:25:05.206Z,51.80
2022-08-14T23:27:09.273Z,51.80
2022-08-14T23:29:14.689Z,52.00
2022-08-14T23:31:34.266Z,51.90
2022-08-14T23:33:41.990Z,51.80
2022-08-14T23:35:59.233Z,51.90
2022-08-14T23:38:05.480Z,51.90
2022-08-14T23:40:26.549Z,52.10
2022-08-14T23:42:50.358Z,52.10
2022-08-14T23:44:53.399Z,52.20
2022-08-14T23:47:03.481Z,52.20
2022-08-14T23:49:08.689Z,52.30
2022-08-14T23:51:18.072Z,52.40
2022-08-14T23:53:48.035Z,52.50
2022-08-14T23:55:54.672Z,52.60
2022-08-14T23:58:01.173Z,52.80
